< < Back
Terminal Aerodrome Forecast


Current Version              Previous Versions:   1  2  3  4  5  6  7  8  9  

Terminal Aerodrome Forecast

577
FTUS44 KBMX 201700
TAFANB
TAF
KANB 201729Z 2018/2118 08009KT P6SM SCT040
     FM210000 00000KT P6SM SKC=



Latest METAR

646
SAUS70 KWBC 211400 RRA
MTRANB
METAR KANB 211353Z AUTO 00000KT 10SM CLR 22/18 A3007 RMK AO2 SLP178
T02170183


USA.gov is the U.S. government's official web portal to all federal, state and local government web resources and services.